< < Back
Terminal Aerodrome Forecast


Current Version              Previous Versions:   1  2  3  4  5  6  7  8  9  

Terminal Aerodrome Forecast

678
FTUS44 KBMX 250520
TAFMGM
TAF
KMGM 250520Z 2506/2606 VRB02KT P6SM FEW050 SCT250
     FM251700 08008KT P6SM SCT250
     FM260000 09002KT P6SM SKC=

Latest METAR

893
SAUS80 KWBC 250900 RRC
MTRMGM
METAR KMGM 250853Z AUTO 09005KT 10SM CLR 25/23 A3012 RMK AO2 SLP194
T02500228 55003


USA.gov is the U.S. government's official web portal to all federal, state and local government web resources and services.